Sullivan, KY (42460)

4:31 PM CST on February 07, 2016 (GMT -0600)
KKYCLAY3 | | Change Station
CLOSE
Current Station
Personal Weather Station
Location: Clay, KY
Elevation: 476 ft
Nearby Weather Stations
Active Advisory: Flood Warning

Elev 476 ft 37.57 °N, 87.79 °W | Updated 2 seconds ago

Clear
Clear
53.3 °F
Feels Like 53.3 °F
N
2.7
Wind Variable Wind from WSW
Gusts 4.0 mph

Today
High -- | Low -- °F
--% Chance of Precip.
Yesterday
High -- | Low -- °F
Precip. -- in
Pressure 29.92 in
Visibility 10.0 miles
Clouds Clear
Dew Point 32 °F
Humidity 44%
Rainfall 0.00 in
Snow Depth Not available.
6:50 AM 5:22 PM
Waning Crescent, 1% visible
METAR K5M9 072215Z AUTO 23018G23KT 10SM CLR 12/M04 A2992 RMK AO2 T01161045
Pressure 29.92 in
Visibility 10.0 miles
Clouds Clear
Dew Point 32 °F
Humidity 44%
Rainfall 0.00 in
Snow Depth Not available.
6:50 AM 5:22 PM
Waning Crescent, 1% visible
METAR K5M9 072215Z AUTO 23018G23KT 10SM CLR 12/M04 A2992 RMK AO2 T01161045

10-Day Weather Forecast

Almanac

Astronomy

Feb. 07, 2016 Rise Set
Actual Time
Civil Twilight
Nautical Twilight
Astronomical Twilight
Moon
Length of Visible Light
Length of Day
Tomorrow will be .
, % of the Moon is Illuminated

Today's Extremes

State Highs State Lows

Community

WunderPhotos

Upload Photos

1,891,324 photos uploaded!

WunderBlog® & News

Nearby

Air Quality

  Air Quality AQ Index Pollutant
Not available.

Snow Depth

Station Depth Elevation

Earthquake Activity

City Distance Mag. Time & Date
Minimum magnitude displayed is 2.5.

Coastal Water Temperatures

Place Temperature

Stations

Nearby Weather Stations

Station Location Temp. Windchill Dew Point Humidity Wind Precip. Elev Updated Type
                   

Watches & Warnings

Flood Warning
Issued: 10:36 AM CST Feb. 7, 2016 – National Weather Service

The Flood Warning continues for
the Ohio River at Shawneetown.
* From late tonight to Wednesday evening.
* At 9:30 am Sunday the stage was 32.5 feet.
* Flood stage is 33.0 feet.
* Minor flooding is forecast.
* Forecast... rise above flood stage tonight and continue to rise
to near 33.4 feet by Tuesday morning.
* Impact... at 33.0 feet... minor flooding occurs affecting mainly
bottomland and surrounding low lying areas.


Lat... Lon 3778 8811 3771 8821 3753 8818 3757 8800
      3773 8800